createdAt,value
2023-04-02T00:01:18.902Z,91.94
2023-04-02T00:03:53.720Z,91.96
2023-04-02T00:06:32.589Z,91.43
2023-04-02T00:09:21.231Z,91.51
2023-04-02T00:11:50.832Z,91.25
2023-04-02T00:14:24.266Z,91.39
2023-04-02T00:16:53.835Z,91.43
2023-04-02T00:19:30.834Z,91.73
2023-04-02T00:21:59.158Z,91.62
2023-04-02T00:24:27.115Z,91.54
2023-04-02T00:26:55.522Z,91.48
2023-04-02T00:29:23.110Z,91.21
2023-04-02T00:31:52.593Z,91.40
2023-04-02T00:34:30.875Z,91.81
2023-04-02T00:36:58.912Z,91.31
2023-04-02T00:39:29.370Z,90.59
2023-04-02T00:42:06.881Z,90.68
2023-04-02T00:44:38.039Z,90.46
2023-04-02T00:47:20.370Z,89.57
2023-04-02T00:49:52.082Z,89.04
2023-04-02T00:52:23.661Z,89.13
2023-04-02T00:55:13.725Z,88.74
2023-04-02T00:57:45.223Z,88.37
2023-04-02T01:00:23.948Z,88.27
2023-04-02T01:03:30.443Z,88.34
2023-04-02T01:06:11.249Z,88.25
2023-04-02T01:09:01.737Z,87.99
2023-04-02T01:11:32.340Z,88.12
2023-04-02T01:14:13.233Z,87.63
2023-04-02T01:17:06.067Z,87.51
2023-04-02T01:19:45.554Z,87.51
2023-04-02T01:22:23.006Z,87.09
2023-04-02T01:24:50.630Z,86.13
2023-04-02T01:27:49.857Z,85.79
2023-04-02T01:30:18.258Z,85.77
2023-04-02T01:32:46.275Z,85.93
2023-04-02T01:35:14.033Z,85.83
2023-04-02T01:37:49.391Z,85.54
2023-04-02T01:40:23.302Z,86.17
2023-04-02T01:42:53.632Z,85.78
2023-04-02T01:45:22.910Z,86.26
2023-04-02T01:47:51.321Z,85.34
2023-04-02T01:50:31.500Z,85.41
2023-04-02T01:53:02.177Z,85.01
2023-04-02T01:55:57.092Z,85.03
2023-04-02T01:58:31.768Z,84.94
2023-04-02T02:01:02.949Z,84.35
2023-04-02T02:03:31.499Z,84.55
2023-04-02T02:05:59.492Z,84.60
2023-04-02T02:08:56.905Z,84.22
2023-04-02T02:11:27.711Z,83.56
2023-04-02T02:13:58.239Z,83.75
2023-04-02T02:16:27.528Z,83.12
2023-04-02T02:18:59.414Z,83.31
2023-04-02T02:21:32.943Z,83.04
2023-04-02T02:24:01.607Z,83.40
2023-04-02T02:26:29.842Z,83.66
2023-04-02T02:28:59.740Z,83.87
2023-04-02T02:31:33.233Z,83.79
2023-04-02T02:34:06.283Z,83.47
2023-04-02T02:36:40.158Z,83.67
2023-04-02T02:39:17.018Z,83.65
2023-04-02T02:41:49.616Z,83.88
2023-04-02T02:44:33.025Z,83.65
2023-04-02T02:47:10.180Z,83.86
2023-04-02T02:49:43.551Z,84.18
2023-04-02T02:52:21.611Z,83.83
2023-04-02T02:54:58.232Z,84.04
2023-04-02T02:57:32.495Z,84.13
2023-04-02T03:00:01.761Z,83.70
2023-04-02T03:02:32.217Z,83.84
2023-04-02T03:05:02.894Z,83.85
2023-04-02T03:07:31.652Z,84.04
2023-04-02T03:10:23.258Z,83.48
2023-04-02T03:13:12.532Z,83.83
2023-04-02T03:16:17.998Z,83.77
2023-04-02T03:19:11.668Z,84.15
2023-04-02T03:21:54.624Z,84.06
2023-04-02T03:24:49.789Z,84.27
2023-04-02T03:27:32.827Z,84.08
2023-04-02T03:30:10.728Z,84.74
2023-04-02T03:32:40.937Z,84.75
2023-04-02T03:35:18.961Z,84.48
2023-04-02T03:37:52.723Z,84.51
2023-04-02T03:40:27.107Z,84.11
2023-04-02T03:43:00.890Z,84.34
2023-04-02T03:45:42.422Z,84.95
2023-04-02T03:48:16.353Z,84.82
2023-04-02T03:50:50.376Z,84.35
2023-04-02T03:53:18.073Z,84.64
2023-04-02T03:55:46.330Z,84.77
2023-04-02T03:58:37.210Z,84.66
2023-04-02T04:01:21.488Z,84.60
2023-04-02T04:03:51.995Z,84.86
2023-04-02T04:06:29.023Z,84.62
2023-04-02T04:09:07.704Z,84.72
2023-04-02T04:11:37.887Z,85.08
2023-04-02T04:14:24.897Z,84.63
2023-04-02T04:17:15.553Z,84.94
2023-04-02T04:19:55.005Z,85.05
2023-04-02T04:22:31.814Z,85.20
2023-04-02T04:25:21.254Z,85.35
2023-04-02T04:27:58.401Z,85.78
2023-04-02T04:30:34.953Z,85.48
2023-04-02T04:33:05.942Z,85.38
2023-04-02T04:35:40.317Z,85.17
2023-04-02T04:38:21.829Z,85.12
2023-04-02T04:40:55.066Z,84.87
2023-04-02T04:43:48.403Z,84.84
2023-04-02T04:46:20.754Z,84.44
2023-04-02T04:49:01.001Z,84.52
2023-04-02T04:51:42.247Z,84.76
2023-04-02T04:54:12.720Z,84.52
2023-04-02T04:56:45.823Z,84.49
2023-04-02T04:59:40.286Z,84.66
2023-04-02T05:02:17.841Z,85.08
2023-04-02T05:04:50.856Z,84.25
2023-04-02T05:07:45.178Z,84.52
2023-04-02T05:10:19.611Z,84.70
2023-04-02T05:13:00.717Z,85.10
2023-04-02T05:15:50.577Z,84.65
2023-04-02T05:18:31.857Z,84.78
2023-04-02T05:21:14.150Z,84.84
2023-04-02T05:23:51.295Z,84.72
2023-04-02T05:26:21.320Z,84.44
2023-04-02T05:29:08.213Z,84.60
2023-04-02T05:31:46.738Z,84.15
2023-04-02T05:34:14.864Z,83.79
2023-04-02T05:36:46.551Z,84.07
2023-04-02T05:39:21.450Z,84.22
2023-04-02T05:42:11.123Z,83.97
2023-04-02T05:44:49.560Z,84.30
2023-04-02T05:47:21.544Z,84.57
2023-04-02T05:50:08.586Z,84.33
2023-04-02T05:52:43.896Z,84.21
2023-04-02T05:55:12.287Z,84.09
2023-04-02T05:57:49.691Z,83.98
2023-04-02T06:00:36.166Z,84.56
2023-04-02T06:03:08.398Z,85.88
2023-04-02T06:05:40.331Z,85.98
2023-04-02T06:08:11.942Z,85.44
2023-04-02T06:11:08.711Z,86.12
2023-04-02T06:13:38.228Z,85.05
2023-04-02T06:16:06.991Z,85.15
2023-04-02T06:18:36.145Z,84.43
2023-04-02T06:21:05.404Z,83.95
2023-04-02T06:23:50.139Z,83.71
2023-04-02T06:26:32.539Z,83.68
2023-04-02T06:29:19.466Z,83.83
2023-04-02T06:31:51.868Z,84.00
2023-04-02T06:34:22.529Z,83.65
2023-04-02T06:36:54.890Z,84.26
2023-04-02T06:39:25.148Z,82.89
2023-04-02T06:42:01.450Z,83.36
2023-04-02T06:44:35.325Z,82.74
2023-04-02T06:47:29.283Z,83.95
2023-04-02T06:50:13.804Z,82.14
2023-04-02T06:52:54.068Z,82.48
2023-04-02T06:55:35.564Z,82.34
2023-04-02T06:58:03.528Z,82.33
2023-04-02T07:00:46.440Z,82.89
2023-04-02T07:03:33.972Z,80.70
2023-04-02T07:06:02.960Z,79.92
2023-04-02T07:08:31.635Z,80.05
2023-04-02T07:10:59.904Z,80.69
2023-04-02T07:13:27.686Z,79.93
2023-04-02T07:15:56.594Z,78.99
2023-04-02T07:18:29.411Z,79.70
2023-04-02T07:20:57.753Z,78.74
2023-04-02T07:23:26.174Z,77.65
2023-04-02T07:25:55.381Z,77.42
2023-04-02T07:28:23.308Z,76.95
2023-04-02T07:30:51.417Z,77.15
2023-04-02T07:33:21.597Z,76.75
2023-04-02T07:35:50.779Z,75.71
2023-04-02T07:38:18.304Z,75.31
2023-04-02T07:40:45.923Z,75.24
2023-04-02T07:43:14.777Z,73.89
2023-04-02T07:45:42.236Z,74.55
2023-04-02T07:48:12.952Z,74.09
2023-04-02T07:50:41.081Z,75.06
2023-04-02T07:53:27.311Z,73.79
2023-04-02T07:55:56.694Z,73.90
2023-04-02T07:58:24.135Z,73.45
2023-04-02T08:00:55.748Z,73.67
2023-04-02T08:03:23.847Z,73.82
2023-04-02T08:05:56.142Z,71.73
2023-04-02T08:08:25.582Z,72.23
2023-04-02T08:10:54.565Z,71.94
2023-04-02T08:13:22.074Z,71.87
2023-04-02T08:15:49.885Z,72.84
2023-04-02T08:18:17.396Z,72.82
2023-04-02T08:20:44.872Z,72.40
2023-04-02T08:23:15.512Z,72.20
2023-04-02T08:25:42.896Z,71.27
2023-04-02T08:28:10.555Z,72.70
2023-04-02T08:30:38.639Z,72.45
2023-04-02T08:33:06.560Z,72.96
2023-04-02T08:35:34.780Z,72.10
2023-04-02T08:38:03.265Z,72.97
2023-04-02T08:40:39.048Z,71.79
2023-04-02T08:43:37.513Z,72.92
2023-04-02T08:46:11.850Z,71.00
2023-04-02T08:48:44.495Z,69.70
2023-04-02T08:51:23.387Z,69.90
2023-04-02T08:53:54.495Z,68.91
2023-04-02T08:56:33.991Z,68.56
2023-04-02T08:59:19.114Z,67.93
2023-04-02T09:01:55.015Z,66.98
2023-04-02T09:04:24.676Z,68.17
2023-04-02T09:06:54.428Z,67.84
2023-04-02T09:09:22.706Z,67.72
2023-04-02T09:12:00.892Z,66.54
2023-04-02T09:14:44.805Z,65.53
2023-04-02T09:17:23.876Z,65.75
2023-04-02T09:20:17.234Z,64.36
2023-04-02T09:22:53.555Z,65.33
2023-04-02T09:25:26.936Z,64.92
2023-04-02T09:27:57.423Z,63.76
2023-04-02T09:30:53.065Z,64.43
2023-04-02T09:33:40.615Z,65.67
2023-04-02T09:36:18.382Z,63.43
2023-04-02T09:39:19.146Z,65.66
2023-04-02T09:41:55.748Z,65.35
2023-04-02T09:44:31.190Z,63.20
2023-04-02T09:47:06.822Z,63.51
2023-04-02T09:49:37.063Z,64.04
2023-04-02T09:52:08.950Z,62.97
2023-04-02T09:54:42.799Z,62.58
2023-04-02T09:57:23.596Z,62.82
2023-04-02T10:00:32.741Z,63.52
2023-04-02T10:03:18.649Z,61.53
2023-04-02T10:05:47.061Z,62.67
2023-04-02T10:08:28.186Z,62.00
2023-04-02T10:10:58.051Z,62.21
2023-04-02T10:13:29.992Z,61.97
2023-04-02T10:16:07.515Z,60.91
2023-04-02T10:18:40.150Z,61.49
2023-04-02T10:21:11.113Z,61.32
2023-04-02T10:23:38.984Z,61.50
2023-04-02T10:26:20.764Z,62.56
2023-04-02T10:29:13.105Z,61.44
2023-04-02T10:32:08.916Z,61.84
2023-04-02T10:34:55.703Z,62.49
2023-04-02T10:37:29.561Z,61.48
2023-04-02T10:40:00.520Z,61.46
2023-04-02T10:42:27.911Z,60.36
2023-04-02T10:44:59.881Z,60.15
2023-04-02T10:47:41.142Z,61.34
2023-04-02T10:50:38.311Z,60.92
2023-04-02T10:53:17.089Z,61.33
2023-04-02T10:55:48.684Z,60.50
2023-04-02T10:58:25.070Z,59.86
2023-04-02T11:00:59.748Z,58.97
2023-04-02T11:03:41.574Z,60.08
2023-04-02T11:06:32.947Z,60.15
2023-04-02T11:09:05.031Z,60.66
2023-04-02T11:11:38.430Z,58.58
2023-04-02T11:14:12.328Z,59.51
2023-04-02T11:16:44.004Z,58.68
2023-04-02T11:19:15.635Z,58.90
2023-04-02T11:21:57.175Z,59.54
2023-04-02T11:24:37.114Z,59.08
2023-04-02T11:27:10.519Z,59.31
2023-04-02T11:29:47.124Z,58.64
2023-04-02T11:32:16.076Z,58.51
2023-04-02T11:34:51.392Z,58.10
2023-04-02T11:37:44.667Z,58.22
2023-04-02T11:40:13.747Z,57.13
2023-04-02T11:42:42.139Z,56.93
2023-04-02T11:45:24.583Z,53.36
2023-04-02T11:48:01.795Z,51.62
2023-04-02T11:50:43.873Z,51.85
2023-04-02T11:53:11.762Z,52.98
2023-04-02T11:56:02.165Z,53.81
2023-04-02T11:58:54.920Z,53.02
2023-04-02T12:01:36.209Z,54.70
2023-04-02T12:04:35.027Z,55.32
2023-04-02T12:07:52.067Z,52.83
2023-04-02T12:10:22.698Z,52.46
2023-04-02T12:12:51.050Z,50.03
2023-04-02T12:15:34.129Z,51.24
2023-04-02T12:18:11.803Z,54.69
2023-04-02T12:20:39.622Z,54.93
2023-04-02T12:23:17.252Z,54.73
2023-04-02T12:25:47.074Z,55.68
2023-04-02T12:28:17.998Z,55.27
2023-04-02T12:30:47.117Z,54.50
2023-04-02T12:33:30.460Z,51.53
2023-04-02T12:36:00.209Z,52.96
2023-04-02T12:38:30.918Z,51.14
2023-04-02T12:41:00.788Z,50.83
2023-04-02T12:43:37.727Z,52.12
2023-04-02T12:46:07.826Z,51.71
2023-04-02T12:48:36.407Z,52.54
2023-04-02T12:51:04.370Z,51.68
2023-04-02T12:53:39.613Z,52.60
2023-04-02T12:56:11.092Z,51.63
2023-04-02T12:58:42.595Z,53.38
2023-04-02T13:01:19.330Z,54.27
2023-04-02T13:04:13.586Z,52.29
2023-04-02T13:06:47.911Z,51.00
2023-04-02T13:09:34.583Z,50.35
2023-04-02T13:12:03.187Z,49.83
2023-04-02T13:14:31.109Z,49.09
2023-04-02T13:16:58.559Z,50.08
2023-04-02T13:19:33.653Z,50.76
2023-04-02T13:22:03.066Z,52.95
2023-04-02T13:24:32.932Z,56.67
2023-04-02T13:27:02.105Z,56.97
2023-04-02T13:29:34.714Z,54.80
2023-04-02T13:32:07.870Z,54.09
2023-04-02T13:34:35.386Z,54.31
2023-04-02T13:37:03.184Z,55.29
2023-04-02T13:39:30.817Z,57.67
2023-04-02T13:42:02.928Z,63.77
2023-04-02T13:44:32.389Z,67.62
2023-04-02T13:47:00.741Z,72.46
2023-04-02T13:49:29.063Z,69.43
2023-04-02T13:52:03.687Z,78.67
2023-04-02T13:54:51.384Z,72.22
2023-04-02T13:57:19.236Z,72.29
2023-04-02T13:59:46.782Z,74.57
2023-04-02T14:02:17.886Z,71.55
2023-04-02T14:04:50.938Z,80.55
2023-04-02T14:07:30.748Z,77.15
2023-04-02T14:10:11.221Z,81.54
2023-04-02T14:13:00.437Z,84.78
2023-04-02T14:15:50.604Z,80.20
2023-04-02T14:18:30.623Z,80.79
2023-04-02T14:21:23.044Z,86.69
2023-04-02T14:24:30.022Z,84.95
2023-04-02T14:27:09.700Z,79.84
2023-04-02T14:29:46.717Z,80.54
2023-04-02T14:32:20.435Z,76.67
2023-04-02T14:35:04.078Z,76.89
2023-04-02T14:38:02.653Z,75.45
2023-04-02T14:40:30.405Z,75.31
2023-04-02T14:43:02.960Z,74.45
2023-04-02T14:45:44.485Z,73.44
2023-04-02T14:48:21.570Z,73.71
2023-04-02T14:50:52.384Z,69.64
2023-04-02T14:53:25.394Z,68.71
2023-04-02T14:55:53.163Z,68.84
2023-04-02T14:58:32.265Z,68.17
2023-04-02T15:01:10.993Z,69.61
2023-04-02T15:03:44.692Z,73.06
2023-04-02T15:06:17.197Z,75.49
2023-04-02T15:08:48.336Z,80.11
2023-04-02T15:11:26.497Z,81.87
2023-04-02T15:13:54.687Z,82.98
2023-04-02T15:16:26.799Z,82.50
2023-04-02T15:18:59.698Z,80.15
2023-04-02T15:21:37.035Z,80.31
2023-04-02T15:24:31.026Z,79.96
2023-04-02T15:27:18.259Z,80.71
2023-04-02T15:30:11.025Z,87.83
2023-04-02T15:32:40.599Z,89.92
2023-04-02T15:35:31.598Z,87.21
2023-04-02T15:38:08.328Z,87.71
2023-04-02T15:41:13.556Z,87.84
2023-04-02T15:43:46.257Z,89.08
2023-04-02T15:46:50.478Z,88.13
2023-04-02T15:49:36.093Z,85.14
2023-04-02T15:52:12.130Z,85.29
2023-04-02T15:54:54.530Z,87.84
2023-04-02T15:57:54.529Z,89.80
2023-04-02T16:00:31.129Z,89.13
2023-04-02T16:03:24.370Z,86.84
2023-04-02T16:05:57.988Z,87.96
2023-04-02T16:08:44.665Z,87.56
2023-04-02T16:11:14.413Z,88.32
2023-04-02T16:13:43.137Z,90.42
2023-04-02T16:16:34.556Z,87.26
2023-04-02T16:19:23.734Z,87.20
2023-04-02T16:21:58.907Z,87.51
2023-04-02T16:24:27.119Z,86.22
2023-04-02T16:26:57.624Z,86.42
2023-04-02T16:29:54.869Z,86.34
2023-04-02T16:33:11.582Z,87.52
2023-04-02T16:35:51.765Z,88.01
2023-04-02T16:38:57.746Z,90.90
2023-04-02T16:41:34.410Z,92.13
2023-04-02T16:44:36.598Z,90.74
2023-04-02T16:47:14.464Z,89.53
2023-04-02T16:49:59.804Z,89.55
2023-04-02T16:52:41.474Z,90.40
2023-04-02T16:55:34.080Z,85.75
2023-04-02T16:58:32.474Z,87.04
2023-04-02T17:01:19.067Z,86.67
2023-04-02T17:04:00.714Z,82.71
2023-04-02T17:06:44.185Z,85.20
2023-04-02T17:09:16.944Z,84.31
2023-04-02T17:11:50.288Z,86.50
2023-04-02T17:14:20.776Z,85.02
2023-04-02T17:16:51.898Z,86.09
2023-04-02T17:19:20.983Z,86.84
2023-04-02T17:21:52.306Z,87.23
2023-04-02T17:24:26.962Z,87.25
2023-04-02T17:26:59.941Z,87.61
2023-04-02T17:29:37.001Z,90.34
2023-04-02T17:32:10.301Z,88.33
2023-04-02T17:34:38.053Z,88.17
2023-04-02T17:37:27.695Z,89.36
2023-04-02T17:40:08.319Z,90.94
2023-04-02T17:42:58.460Z,92.33
2023-04-02T17:45:55.567Z,93.53
2023-04-02T17:48:35.549Z,93.49
2023-04-02T17:51:30.309Z,94.36
2023-04-02T17:54:07.470Z,97.27
2023-04-02T17:56:44.367Z,97.69
2023-04-02T17:59:42.608Z,96.83
2023-04-02T18:02:30.110Z,97.87
2023-04-02T18:05:14.634Z,97.45
2023-04-02T18:08:14.467Z,96.71
2023-04-02T18:10:45.594Z,96.64
2023-04-02T18:13:39.587Z,96.60
2023-04-02T18:16:22.816Z,96.43
2023-04-02T18:19:23.124Z,97.05
2023-04-02T18:22:06.467Z,97.75
2023-04-02T18:24:43.058Z,97.93
2023-04-02T18:27:18.763Z,99.38
2023-04-02T18:30:09.478Z,100.00
2023-04-02T18:32:48.216Z,100.00
2023-04-02T18:35:22.565Z,100.00
2023-04-02T18:38:12.730Z,100.00
2023-04-02T18:40:56.847Z,100.00
2023-04-02T18:43:57.455Z,100.00
2023-04-02T18:46:48.748Z,100.00
2023-04-02T18:49:29.553Z,100.00
2023-04-02T18:52:01.253Z,100.00
2023-04-02T18:54:42.265Z,100.00
2023-04-02T18:57:27.388Z,100.00
2023-04-02T19:00:00.702Z,100.00
2023-04-02T19:02:31.537Z,100.00
2023-04-02T19:05:04.165Z,100.00
2023-04-02T19:07:34.936Z,100.00
2023-04-02T19:10:12.203Z,100.00
2023-04-02T19:12:40.018Z,100.00
2023-04-02T19:15:18.782Z,100.00
2023-04-02T19:17:51.697Z,100.00
2023-04-02T19:20:33.061Z,100.00
2023-04-02T19:23:16.964Z,100.00
2023-04-02T19:26:12.910Z,100.00
2023-04-02T19:28:59.699Z,100.00
2023-04-02T19:31:48.820Z,100.00
2023-04-02T19:34:38.974Z,100.00
2023-04-02T19:37:39.179Z,100.00
2023-04-02T19:40:16.080Z,100.00
2023-04-02T19:42:47.336Z,100.00
2023-04-02T19:45:27.114Z,100.00
2023-04-02T19:47:57.105Z,100.00
2023-04-02T19:50:25.730Z,100.00
2023-04-02T19:52:53.530Z,100.00
2023-04-02T19:55:21.725Z,100.00
2023-04-02T19:57:49.850Z,100.00
2023-04-02T20:00:18.524Z,100.00
2023-04-02T20:02:46.683Z,100.00
2023-04-02T20:05:14.536Z,100.00
2023-04-02T20:07:42.432Z,100.00
2023-04-02T20:10:10.840Z,100.00
2023-04-02T20:12:38.599Z,100.00
2023-04-02T20:15:07.434Z,100.00
2023-04-02T20:17:35.687Z,100.00
2023-04-02T20:20:04.496Z,100.00
2023-04-02T20:22:32.361Z,100.00
2023-04-02T20:25:00.473Z,100.00
2023-04-02T20:27:28.554Z,100.00
2023-04-02T20:29:57.063Z,100.00
2023-04-02T20:32:25.310Z,100.00
2023-04-02T20:34:54.185Z,100.00
2023-04-02T20:37:22.028Z,100.00
2023-04-02T20:39:49.854Z,100.00
2023-04-02T20:42:17.511Z,100.00
2023-04-02T20:44:46.110Z,100.00
2023-04-02T20:47:13.995Z,100.00
2023-04-02T20:49:41.768Z,100.00
2023-04-02T20:52:09.722Z,100.00
2023-04-02T20:54:37.460Z,100.00
2023-04-02T20:57:04.953Z,100.00
2023-04-02T20:59:32.427Z,100.00
2023-04-02T21:02:00.419Z,100.00
2023-04-02T21:04:28.000Z,100.00
2023-04-02T21:06:57.161Z,100.00
2023-04-02T21:09:25.017Z,100.00
2023-04-02T21:11:52.455Z,100.00
2023-04-02T21:14:20.023Z,100.00
2023-04-02T21:16:47.755Z,100.00
2023-04-02T21:19:15.333Z,100.00
2023-04-02T21:21:44.866Z,100.00
2023-04-02T21:24:12.683Z,100.00
2023-04-02T21:26:41.031Z,100.00
2023-04-02T21:29:08.849Z,100.00
2023-04-02T21:31:38.336Z,100.00
2023-04-02T21:34:07.115Z,100.00
2023-04-02T21:36:41.107Z,100.00
2023-04-02T21:39:16.906Z,100.00
2023-04-02T21:41:46.672Z,100.00
2023-04-02T21:44:16.347Z,100.00
2023-04-02T21:46:44.296Z,100.00
2023-04-02T21:49:14.021Z,100.00
2023-04-02T21:51:43.109Z,100.00
2023-04-02T21:54:10.569Z,100.00
2023-04-02T21:56:40.406Z,100.00
2023-04-02T21:59:10.283Z,100.00
2023-04-02T22:01:40.925Z,100.00
2023-04-02T22:04:11.348Z,100.00
2023-04-02T22:06:41.044Z,100.00
2023-04-02T22:09:14.741Z,100.00
2023-04-02T22:11:45.446Z,100.00
2023-04-02T22:14:13.811Z,100.00
2023-04-02T22:16:41.888Z,100.00
2023-04-02T22:19:12.670Z,100.00
2023-04-02T22:21:41.418Z,100.00
2023-04-02T22:24:13.179Z,100.00
2023-04-02T22:26:41.240Z,100.00
2023-04-02T22:29:09.273Z,100.00
2023-04-02T22:31:37.341Z,100.00
2023-04-02T22:34:06.548Z,100.00
2023-04-02T22:36:34.746Z,100.00
2023-04-02T22:39:05.451Z,100.00
2023-04-02T22:41:33.481Z,99.59
2023-04-02T22:44:01.718Z,99.00
2023-04-02T22:46:30.495Z,95.99
2023-04-02T22:48:58.838Z,94.66
2023-04-02T22:51:28.088Z,93.74
2023-04-02T22:53:56.373Z,93.72
2023-04-02T22:56:31.654Z,93.04
2023-04-02T22:58:59.589Z,92.74
2023-04-02T23:01:31.125Z,93.44
2023-04-02T23:03:59.859Z,92.82
2023-04-02T23:06:28.400Z,93.53
2023-04-02T23:08:55.926Z,93.94
2023-04-02T23:11:25.903Z,94.23
2023-04-02T23:13:55.751Z,96.42
2023-04-02T23:16:24.402Z,96.81
2023-04-02T23:18:52.475Z,98.42
2023-04-02T23:21:20.903Z,99.10
2023-04-02T23:23:48.672Z,97.40
2023-04-02T23:26:18.553Z,98.10
2023-04-02T23:28:46.343Z,98.80
2023-04-02T23:31:16.366Z,99.92
2023-04-02T23:33:44.150Z,100.00
2023-04-02T23:36:16.731Z,100.00
2023-04-02T23:38:44.442Z,100.00
2023-04-02T23:41:14.413Z,100.00
2023-04-02T23:43:42.268Z,100.00
2023-04-02T23:46:10.144Z,100.00
2023-04-02T23:48:38.162Z,100.00
2023-04-02T23:51:06.834Z,100.00
2023-04-02T23:53:34.821Z,100.00
2023-04-02T23:56:02.665Z,100.00
2023-04-02T23:58:30.550Z,100.00
